Terminal Aerodrome Forecast
Issued by NWS Central Illinois

Home | Current Version | Previous Version | Text Only | Print | Product List | Glossary On
Versions: 1 2 3 4 5 6 7 8 9 10 11 12 13 14 15 16 17 18 19 20 21 22 23 24 25 26 27 28 29 30 31
000
FTUS43 KILX 230916 AAD
TAFSPI
TAF AMD
KSPI 230916Z 2309/2406 19004KT 1/4SM FG SKC
      TEMPO 2309/2312 1SM BR
     FM231500 05005KT P6SM BKN080
     FM240000 11009KT P6SM BKN030=

USA.gov is the U.S. government's official web portal to all federal, state and local government web resources and services.